createdAt,value
2019-01-19T00:00:46.492Z,4.58
2019-01-19T00:03:42.689Z,3.80
2019-01-19T00:06:38.120Z,5.60
2019-01-19T00:09:22.360Z,4.03
2019-01-19T00:12:32.864Z,4.53
2019-01-19T00:15:13.615Z,4.87
2019-01-19T00:18:21.357Z,5.55
2019-01-19T00:21:37.713Z,4.40
2019-01-19T00:24:27.999Z,3.90
2019-01-19T00:27:26.745Z,3.65
2019-01-19T00:30:22.380Z,3.60
2019-01-19T00:33:41.984Z,3.62
2019-01-19T00:36:26.217Z,4.58
2019-01-19T00:39:37.616Z,4.83
2019-01-19T00:42:38.555Z,4.17
2019-01-19T00:45:50.300Z,3.90
2019-01-19T00:48:34.360Z,3.15
2019-01-19T00:51:40.046Z,3.80
2019-01-19T00:54:24.790Z,3.10
2019-01-19T00:57:21.146Z,3.33
2019-01-19T00:59:58.702Z,3.35
2019-01-19T01:03:00.719Z,3.65
2019-01-19T01:05:57.107Z,3.27
2019-01-19T01:08:51.980Z,3.25
2019-01-19T01:12:02.391Z,3.25
2019-01-19T01:15:06.836Z,3.02
2019-01-19T01:18:05.452Z,3.33
2019-01-19T01:20:50.412Z,3.40
2019-01-19T01:23:50.199Z,3.70
2019-01-19T01:27:21.929Z,3.35
2019-01-19T01:30:44.287Z,3.70
2019-01-19T01:33:48.993Z,3.10
2019-01-19T01:36:30.397Z,3.08
2019-01-19T01:39:18.632Z,3.55
2019-01-19T01:42:29.042Z,4.10
2019-01-19T01:45:19.700Z,3.00
2019-01-19T01:48:24.622Z,3.90
2019-01-19T01:51:30.105Z,3.30
2019-01-19T01:54:45.742Z,3.35
2019-01-19T01:57:21.084Z,3.12
2019-01-19T02:00:21.677Z,3.30
2019-01-19T02:03:20.255Z,3.05
2019-01-19T02:06:23.196Z,3.22
2019-01-19T02:09:17.228Z,3.45
2019-01-19T02:12:33.775Z,3.75
2019-01-19T02:15:59.096Z,3.62
2019-01-19T02:18:57.873Z,3.70
2019-01-19T02:22:01.567Z,3.47
2019-01-19T02:25:32.783Z,3.77
2019-01-19T02:28:36.364Z,3.67
2019-01-19T02:31:49.771Z,3.00
2019-01-19T02:35:06.488Z,3.45
2019-01-19T02:37:59.990Z,3.85
2019-01-19T02:41:08.906Z,3.10
2019-01-19T02:43:48.904Z,2.92
2019-01-19T02:47:07.050Z,2.90
2019-01-19T02:50:26.758Z,3.15
2019-01-19T02:53:25.569Z,3.20
2019-01-19T02:56:20.383Z,4.12
2019-01-19T02:59:12.003Z,3.85
2019-01-19T03:02:15.980Z,4.00
2019-01-19T03:05:06.537Z,2.98
2019-01-19T03:08:05.314Z,3.60
2019-01-19T03:11:12.023Z,3.08
2019-01-19T03:14:08.896Z,3.60
2019-01-19T03:17:03.526Z,2.70
2019-01-19T03:20:16.506Z,3.00
2019-01-19T03:23:28.356Z,2.98
2019-01-19T03:26:25.407Z,2.55
2019-01-19T03:29:29.155Z,2.62
2019-01-19T03:32:38.164Z,2.90
2019-01-19T03:35:32.152Z,2.40
2019-01-19T03:38:58.259Z,2.75
2019-01-19T03:42:02.240Z,3.00
2019-01-19T03:44:53.653Z,3.05
2019-01-19T03:47:52.528Z,2.58
2019-01-19T03:50:32.905Z,2.77
2019-01-19T03:53:25.660Z,3.22
2019-01-19T03:56:30.431Z,2.77
2019-01-19T03:59:37.625Z,2.75
2019-01-19T04:02:36.951Z,2.70
2019-01-19T04:05:45.369Z,2.62
2019-01-19T04:09:03.555Z,2.60
2019-01-19T04:12:17.017Z,2.67
2019-01-19T04:15:30.239Z,2.90
2019-01-19T04:18:27.498Z,3.05
2019-01-19T04:21:22.940Z,2.60
2019-01-19T04:23:57.078Z,2.58
2019-01-19T04:26:39.327Z,2.90
2019-01-19T04:29:09.085Z,2.62
2019-01-19T04:31:38.600Z,2.52
2019-01-19T04:34:08.545Z,2.70
2019-01-19T04:36:38.351Z,2.70
2019-01-19T04:39:12.044Z,2.62
2019-01-19T04:41:42.303Z,2.60
2019-01-19T04:44:11.787Z,2.52
2019-01-19T04:46:41.446Z,2.60
2019-01-19T04:49:11.423Z,2.87
2019-01-19T04:51:41.001Z,2.30
2019-01-19T04:54:10.583Z,2.47
2019-01-19T04:56:40.249Z,2.70
2019-01-19T04:59:09.770Z,2.02
2019-01-19T05:01:39.415Z,2.25
2019-01-19T05:04:08.895Z,2.62
2019-01-19T05:06:38.509Z,2.45
2019-01-19T05:09:09.160Z,2.62
2019-01-19T05:11:38.661Z,3.00
2019-01-19T05:14:08.265Z,2.90
2019-01-19T05:16:38.015Z,3.22
2019-01-19T05:19:07.558Z,2.80
2019-01-19T05:21:37.143Z,2.47
2019-01-19T05:24:06.953Z,3.12
2019-01-19T05:26:36.589Z,2.67
2019-01-19T05:29:06.308Z,1.87
2019-01-19T05:31:35.880Z,2.30
2019-01-19T05:34:05.462Z,2.35
2019-01-19T05:36:38.469Z,2.40
2019-01-19T05:39:08.574Z,2.15
2019-01-19T05:41:38.186Z,2.30
2019-01-19T05:44:07.867Z,2.12
2019-01-19T05:46:37.803Z,2.15
2019-01-19T05:49:07.366Z,1.92
2019-01-19T05:51:36.925Z,2.08
2019-01-19T05:54:06.720Z,2.55
2019-01-19T05:56:36.537Z,2.72
2019-01-19T05:59:06.235Z,1.85
2019-01-19T06:01:35.883Z,2.10
2019-01-19T06:04:05.652Z,2.08
2019-01-19T06:06:35.336Z,1.57
2019-01-19T06:09:07.898Z,2.17
2019-01-19T06:11:37.452Z,1.92
2019-01-19T06:14:07.306Z,2.02
2019-01-19T06:16:37.104Z,1.62
2019-01-19T06:19:06.983Z,1.60
2019-01-19T06:21:41.996Z,1.62
2019-01-19T06:24:11.791Z,1.92
2019-01-19T06:26:41.407Z,1.57
2019-01-19T06:29:11.407Z,2.20
2019-01-19T06:31:41.021Z,2.50
2019-01-19T06:34:10.705Z,1.75
2019-01-19T06:36:40.597Z,1.45
2019-01-19T06:39:11.762Z,1.70
2019-01-19T06:41:41.670Z,1.70
2019-01-19T06:44:11.333Z,1.70
2019-01-19T06:46:40.912Z,1.57
2019-01-19T06:49:11.037Z,1.50
2019-01-19T06:51:40.752Z,2.22
2019-01-19T06:54:10.928Z,2.52
2019-01-19T06:56:41.122Z,1.55
2019-01-19T06:59:17.314Z,1.45
2019-01-19T07:01:42.290Z,1.42
2019-01-19T07:04:11.836Z,1.57
2019-01-19T07:06:41.498Z,1.70
2019-01-19T07:09:11.302Z,1.30
2019-01-19T07:11:41.270Z,1.87
2019-01-19T07:14:11.049Z,1.40
2019-01-19T07:16:40.726Z,1.52
2019-01-19T07:19:10.369Z,1.15
2019-01-19T07:21:40.125Z,1.40
2019-01-19T07:24:09.759Z,1.67
2019-01-19T07:26:39.488Z,1.60
2019-01-19T07:29:09.395Z,1.50
2019-01-19T07:31:38.935Z,1.30
2019-01-19T07:34:08.528Z,1.50
2019-01-19T07:36:38.197Z,1.57
2019-01-19T07:39:08.978Z,1.30
2019-01-19T07:41:38.528Z,1.43
2019-01-19T07:44:08.369Z,1.60
2019-01-19T07:46:38.823Z,1.10
2019-01-19T07:49:08.506Z,1.33
2019-01-19T07:51:38.515Z,1.85
2019-01-19T07:54:08.558Z,2.43
2019-01-19T07:56:38.541Z,1.27
2019-01-19T07:59:08.152Z,1.40
2019-01-19T08:01:37.628Z,1.50
2019-01-19T08:04:07.350Z,1.40
2019-01-19T08:06:37.342Z,1.30
2019-01-19T08:09:08.955Z,1.87
2019-01-19T08:11:39.265Z,1.10
2019-01-19T08:14:08.956Z,3.47
2019-01-19T08:16:38.652Z,2.00
2019-01-19T08:19:08.512Z,1.80
2019-01-19T08:21:38.325Z,1.65
2019-01-19T08:24:08.042Z,2.50
2019-01-19T08:26:38.261Z,2.10
2019-01-19T08:29:08.250Z,2.13
2019-01-19T08:31:37.841Z,2.15
2019-01-19T08:34:07.842Z,2.10
2019-01-19T08:36:37.614Z,2.00
2019-01-19T08:39:09.362Z,1.73
2019-01-19T08:41:39.148Z,2.03
2019-01-19T08:44:08.912Z,2.00
2019-01-19T08:46:38.714Z,1.50
2019-01-19T08:49:08.346Z,1.70
2019-01-19T08:51:37.861Z,1.30
2019-01-19T08:54:07.688Z,1.80
2019-01-19T08:56:38.207Z,1.00
2019-01-19T08:59:07.949Z,1.63
2019-01-19T09:01:37.552Z,1.40
2019-01-19T09:04:07.176Z,1.67
2019-01-19T09:06:37.061Z,1.80
2019-01-19T09:09:08.560Z,1.80
2019-01-19T09:11:38.351Z,1.93
2019-01-19T09:14:07.958Z,1.77
2019-01-19T09:16:39.906Z,2.10
2019-01-19T09:19:09.149Z,1.87
2019-01-19T09:21:38.849Z,1.40
2019-01-19T09:24:33.581Z,2.03
2019-01-19T09:27:03.220Z,1.70
2019-01-19T09:29:32.850Z,1.53
2019-01-19T09:32:02.986Z,2.23
2019-01-19T09:34:34.087Z,1.20
2019-01-19T09:37:04.110Z,1.20
2019-01-19T09:39:33.780Z,1.40
2019-01-19T09:42:03.441Z,1.20
2019-01-19T09:44:33.364Z,1.40
2019-01-19T09:47:03.001Z,1.47
2019-01-19T09:49:32.824Z,1.67
2019-01-19T09:52:02.461Z,1.37
2019-01-19T09:54:32.181Z,1.77
2019-01-19T09:57:01.858Z,1.40
2019-01-19T09:59:31.580Z,1.47
2019-01-19T10:02:01.475Z,1.80
2019-01-19T10:04:31.676Z,1.20
2019-01-19T10:07:01.378Z,1.33
2019-01-19T10:09:31.015Z,2.00
2019-01-19T10:12:00.703Z,1.60
2019-01-19T10:14:30.310Z,1.50
2019-01-19T10:17:00.066Z,1.10
2019-01-19T10:19:29.662Z,1.60
2019-01-19T10:21:59.173Z,1.63
2019-01-19T10:24:28.825Z,1.40
2019-01-19T10:26:58.367Z,1.50
2019-01-19T10:29:28.192Z,1.20
2019-01-19T10:31:58.041Z,1.33
2019-01-19T10:34:27.629Z,1.10
2019-01-19T10:36:57.299Z,1.20
2019-01-19T10:39:27.001Z,1.30
2019-01-19T10:41:56.536Z,1.30
2019-01-19T10:44:26.233Z,1.20
2019-01-19T10:46:55.906Z,1.30
2019-01-19T10:49:25.347Z,1.30
2019-01-19T10:51:59.338Z,1.20
2019-01-19T10:54:26.306Z,1.07
2019-01-19T10:56:55.878Z,1.43
2019-01-19T10:59:25.429Z,1.33
2019-01-19T11:01:55.223Z,1.23
2019-01-19T11:04:24.852Z,1.60
2019-01-19T11:06:54.452Z,1.37
2019-01-19T11:09:24.030Z,1.37
2019-01-19T11:11:53.584Z,1.50
2019-01-19T11:14:23.161Z,1.10
2019-01-19T11:16:52.969Z,1.23
2019-01-19T11:19:22.473Z,1.07
2019-01-19T11:21:52.070Z,1.40
2019-01-19T11:24:22.113Z,1.33
2019-01-19T11:26:51.667Z,1.90
2019-01-19T11:29:21.220Z,1.60
2019-01-19T11:31:50.968Z,1.50
2019-01-19T11:34:20.922Z,1.43
2019-01-19T11:36:50.547Z,1.20
2019-01-19T11:39:20.262Z,1.30
2019-01-19T11:41:49.794Z,1.43
2019-01-19T11:44:19.360Z,1.70
2019-01-19T11:46:49.319Z,1.30
2019-01-19T11:49:19.426Z,1.30
2019-01-19T11:51:48.879Z,1.60
2019-01-19T11:54:18.906Z,1.80
2019-01-19T11:56:48.525Z,1.63
2019-01-19T11:59:18.105Z,1.50
2019-01-19T12:01:47.914Z,1.30
2019-01-19T12:04:17.616Z,1.93
2019-01-19T12:06:47.325Z,1.30
2019-01-19T12:09:17.045Z,1.50
2019-01-19T12:11:46.585Z,1.80
2019-01-19T12:14:16.463Z,1.83
2019-01-19T12:16:46.236Z,1.73
2019-01-19T12:19:16.119Z,2.40
2019-01-19T12:21:46.093Z,2.20
2019-01-19T12:24:16.165Z,3.60
2019-01-19T12:26:45.884Z,2.47
2019-01-19T12:29:15.462Z,1.90
2019-01-19T12:31:45.596Z,1.80
2019-01-19T12:34:15.378Z,1.67
2019-01-19T12:36:45.353Z,1.90
2019-01-19T12:39:16.279Z,1.67
2019-01-19T12:41:46.163Z,1.90
2019-01-19T12:44:15.900Z,2.27
2019-01-19T12:46:45.825Z,1.73
2019-01-19T12:49:15.395Z,1.97
2019-01-19T12:51:45.298Z,2.40
2019-01-19T12:54:15.305Z,2.00
2019-01-19T12:56:45.292Z,2.63
2019-01-19T12:59:14.967Z,2.63
2019-01-19T13:01:44.892Z,2.53
2019-01-19T13:04:14.883Z,2.20
2019-01-19T13:07:00.705Z,2.37
2019-01-19T13:09:51.879Z,2.40
2019-01-19T13:12:48.866Z,2.00
2019-01-19T13:15:50.804Z,1.73
2019-01-19T13:18:52.742Z,1.90
2019-01-19T13:21:57.504Z,1.60
2019-01-19T13:24:44.985Z,1.47
2019-01-19T13:27:50.994Z,1.93
2019-01-19T13:30:55.771Z,1.77
2019-01-19T13:33:39.159Z,2.30
2019-01-19T13:36:52.444Z,2.00
2019-01-19T13:39:51.420Z,5.03
2019-01-19T13:42:55.449Z,1.83
2019-01-19T13:46:15.267Z,2.03
2019-01-19T13:49:06.765Z,2.43
2019-01-19T13:52:03.610Z,2.20
2019-01-19T13:55:20.157Z,2.00
2019-01-19T13:58:31.031Z,2.13
2019-01-19T14:01:39.846Z,2.43
2019-01-19T14:04:47.385Z,1.97
2019-01-19T14:07:50.673Z,2.63
2019-01-19T14:10:44.369Z,2.00
2019-01-19T14:13:41.182Z,1.70
2019-01-19T14:17:00.807Z,1.93
2019-01-19T14:20:08.921Z,1.77
2019-01-19T14:23:37.501Z,2.30
2019-01-19T14:26:42.225Z,1.70
2019-01-19T14:29:45.294Z,2.20
2019-01-19T14:32:49.622Z,1.70
2019-01-19T14:35:35.079Z,1.90
2019-01-19T14:38:36.516Z,2.27
2019-01-19T14:41:56.899Z,2.60
2019-01-19T14:45:15.432Z,2.33
2019-01-19T14:48:23.098Z,2.70
2019-01-19T14:51:35.842Z,2.13
2019-01-19T14:54:47.555Z,2.60
2019-01-19T14:57:52.135Z,2.30
2019-01-19T15:00:59.612Z,1.77
2019-01-19T15:03:41.653Z,2.13
2019-01-19T15:07:16.200Z,4.60
2019-01-19T15:10:16.401Z,2.97
2019-01-19T15:13:07.841Z,2.30
2019-01-19T15:15:58.265Z,2.30
2019-01-19T15:18:52.605Z,2.93
2019-01-19T15:22:14.386Z,2.90
2019-01-19T15:25:07.986Z,3.27
2019-01-19T15:28:15.058Z,3.30
2019-01-19T15:31:19.874Z,2.00
2019-01-19T15:34:25.398Z,2.07
2019-01-19T15:37:19.410Z,2.07
2019-01-19T15:40:48.149Z,2.60
2019-01-19T15:44:10.335Z,2.50
2019-01-19T15:47:06.429Z,1.97
2019-01-19T15:50:23.163Z,1.77
2019-01-19T15:53:30.665Z,2.33
2019-01-19T15:56:25.365Z,1.70
2019-01-19T15:59:24.646Z,2.03
2019-01-19T16:02:34.775Z,2.30
2019-01-19T16:05:32.509Z,2.60
2019-01-19T16:08:50.639Z,2.63
2019-01-19T16:11:48.913Z,2.57
2019-01-19T16:15:01.476Z,2.80
2019-01-19T16:18:00.911Z,2.63
2019-01-19T16:20:55.688Z,2.40
2019-01-19T16:24:11.396Z,2.37
2019-01-19T16:27:42.805Z,2.40
2019-01-19T16:30:32.468Z,2.03
2019-01-19T16:34:09.802Z,1.70
2019-01-19T16:37:11.982Z,1.70
2019-01-19T16:40:03.709Z,1.93
2019-01-19T16:43:12.734Z,2.53
2019-01-19T16:46:26.084Z,2.00
2019-01-19T16:49:41.199Z,1.93
2019-01-19T16:52:55.788Z,1.90
2019-01-19T16:56:00.358Z,2.30
2019-01-19T16:59:10.073Z,1.77
2019-01-19T17:02:20.603Z,2.17
2019-01-19T17:05:46.608Z,2.10
2019-01-19T17:08:45.050Z,1.83
2019-01-19T17:11:59.575Z,1.90
2019-01-19T17:14:58.454Z,2.30
2019-01-19T17:18:10.393Z,2.27
2019-01-19T17:21:27.340Z,1.87
2019-01-19T17:24:21.917Z,2.20
2019-01-19T17:27:31.434Z,2.03
2019-01-19T17:30:53.690Z,2.97
2019-01-19T17:33:47.477Z,2.83
2019-01-19T17:36:44.519Z,2.70
2019-01-19T17:39:57.123Z,3.10
2019-01-19T17:43:07.695Z,3.27
2019-01-19T17:46:23.292Z,2.87
2019-01-19T17:49:29.632Z,3.33
2019-01-19T17:52:36.235Z,3.10
2019-01-19T17:55:51.639Z,3.03
2019-01-19T17:58:48.706Z,3.27
2019-01-19T18:01:45.805Z,2.97
2019-01-19T18:04:42.019Z,3.60
2019-01-19T18:07:31.778Z,3.50
2019-01-19T18:10:40.807Z,3.00
2019-01-19T18:14:19.751Z,3.60
2019-01-19T18:17:24.448Z,3.50
2019-01-19T18:20:18.418Z,3.60
2019-01-19T18:23:26.754Z,3.73
2019-01-19T18:26:07.215Z,3.10
2019-01-19T18:29:25.305Z,3.50
2019-01-19T18:32:04.492Z,3.33
2019-01-19T18:35:19.080Z,2.77
2019-01-19T18:38:17.661Z,3.97
2019-01-19T18:41:18.654Z,3.40
2019-01-19T18:44:21.259Z,3.67
2019-01-19T18:47:33.656Z,3.30
2019-01-19T18:50:47.346Z,3.57
2019-01-19T18:54:02.274Z,3.43
2019-01-19T18:57:03.923Z,3.70
2019-01-19T19:00:17.623Z,3.00
2019-01-19T19:03:35.641Z,4.07
2019-01-19T19:06:46.919Z,3.87
2019-01-19T19:09:49.087Z,4.47
2019-01-19T19:12:43.588Z,3.13
2019-01-19T19:15:46.739Z,3.30
2019-01-19T19:19:03.385Z,3.20
2019-01-19T19:22:14.446Z,3.10
2019-01-19T19:25:13.117Z,3.90
2019-01-19T19:28:19.425Z,3.13
2019-01-19T19:31:19.702Z,4.10
2019-01-19T19:33:57.390Z,3.80
2019-01-19T19:37:00.904Z,3.60
2019-01-19T19:39:55.631Z,4.33
2019-01-19T19:42:40.636Z,3.27
2019-01-19T19:46:03.793Z,3.57
2019-01-19T19:49:11.583Z,3.57
2019-01-19T19:52:06.813Z,4.27
2019-01-19T19:54:37.257Z,3.80
2019-01-19T19:57:07.388Z,4.97
2019-01-19T19:59:37.027Z,4.47
2019-01-19T20:02:07.006Z,4.80
2019-01-19T20:04:36.816Z,4.07
2019-01-19T20:07:07.041Z,4.00
2019-01-19T20:09:37.253Z,4.63
2019-01-19T20:12:10.541Z,3.90
2019-01-19T20:14:40.543Z,4.07
2019-01-19T20:17:10.681Z,3.87
2019-01-19T20:19:40.377Z,4.60
2019-01-19T20:22:10.958Z,3.87
2019-01-19T20:24:40.635Z,3.97
2019-01-19T20:27:10.399Z,3.83
2019-01-19T20:29:40.483Z,4.27
2019-01-19T20:32:10.475Z,4.33
2019-01-19T20:34:40.556Z,4.97
2019-01-19T20:37:11.575Z,5.03
2019-01-19T20:39:41.327Z,4.17
2019-01-19T20:42:11.074Z,3.73
2019-01-19T20:44:41.131Z,5.23
2019-01-19T20:47:10.826Z,4.40
2019-01-19T20:49:40.383Z,4.20
2019-01-19T20:52:10.311Z,3.57
2019-01-19T20:54:41.197Z,4.20
2019-01-19T20:57:11.790Z,3.83
2019-01-19T20:59:41.737Z,4.00
2019-01-19T21:02:11.706Z,3.83
2019-01-19T21:04:41.472Z,4.10
2019-01-19T21:07:12.783Z,4.07
2019-01-19T21:09:42.885Z,3.63
2019-01-19T21:12:12.698Z,4.10
2019-01-19T21:14:42.822Z,4.67
2019-01-19T21:17:13.008Z,3.07
2019-01-19T21:19:43.122Z,3.33
2019-01-19T21:22:13.039Z,3.90
2019-01-19T21:24:42.998Z,3.70
2019-01-19T21:27:13.250Z,4.87
2019-01-19T21:29:43.107Z,3.43
2019-01-19T21:32:13.402Z,3.53
2019-01-19T21:34:43.106Z,3.80
2019-01-19T21:37:13.118Z,4.00
2019-01-19T21:39:42.988Z,4.27
2019-01-19T21:42:13.033Z,3.37
2019-01-19T21:44:43.139Z,3.87
2019-01-19T21:47:13.685Z,3.87
2019-01-19T21:49:43.408Z,4.07
2019-01-19T21:52:13.181Z,3.60
2019-01-19T21:54:43.290Z,3.40
2019-01-19T21:57:12.993Z,3.43
2019-01-19T21:59:43.161Z,3.07
2019-01-19T22:02:13.327Z,3.60
2019-01-19T22:04:43.114Z,3.93
2019-01-19T22:07:13.137Z,3.30
2019-01-19T22:09:43.434Z,3.60
2019-01-19T22:12:13.102Z,4.23
2019-01-19T22:14:43.035Z,3.43
2019-01-19T22:17:13.097Z,3.63
2019-01-19T22:19:43.013Z,3.40
2019-01-19T22:22:13.076Z,3.27
2019-01-19T22:24:43.076Z,3.17
2019-01-19T22:27:14.779Z,3.53
2019-01-19T22:29:44.715Z,3.53
2019-01-19T22:32:14.500Z,4.87
2019-01-19T22:34:44.433Z,3.93
2019-01-19T22:37:14.485Z,3.60
2019-01-19T22:39:44.176Z,3.83
2019-01-19T22:42:13.878Z,3.97
2019-01-19T22:44:43.703Z,3.93
2019-01-19T22:47:13.615Z,4.10
2019-01-19T22:49:43.416Z,3.57
2019-01-19T22:52:13.275Z,4.00
2019-01-19T22:54:43.001Z,3.50
2019-01-19T22:57:12.655Z,3.97
2019-01-19T22:59:42.496Z,3.47
2019-01-19T23:02:13.803Z,3.77
2019-01-19T23:04:44.151Z,3.50
2019-01-19T23:07:13.972Z,3.80
2019-01-19T23:09:43.561Z,3.80
2019-01-19T23:12:13.520Z,4.47
2019-01-19T23:14:43.320Z,4.40
2019-01-19T23:17:13.040Z,4.13
2019-01-19T23:19:42.881Z,3.40
2019-01-19T23:22:12.893Z,4.13
2019-01-19T23:24:42.713Z,4.47
2019-01-19T23:27:12.696Z,4.80
2019-01-19T23:29:42.331Z,4.33
2019-01-19T23:32:11.887Z,4.60
2019-01-19T23:34:41.771Z,5.87
2019-01-19T23:37:11.290Z,4.80
2019-01-19T23:39:40.873Z,4.87
2019-01-19T23:42:10.694Z,4.90
2019-01-19T23:44:40.328Z,4.93
2019-01-19T23:47:09.950Z,4.77
2019-01-19T23:49:39.657Z,4.67
2019-01-19T23:52:09.480Z,4.50
2019-01-19T23:54:39.263Z,5.10
2019-01-19T23:57:09.010Z,5.27
2019-01-19T23:59:38.663Z,5.37
